Time;durP1;ratioP1;P1;durP2;ratioP2;P2;SDS_P1;SDS_P2;PMS_P1;PMS_P2;Temp;Humidity;BMP_temperature;BMP_pressure;BME280_temperature;BME280_humidity;BME280_pressure;Samples;Min_cycle;Max_cycle;Signal;HPM_P1;HPM_P2
2023/03/12 00:06:12;;;;;;;0.20;0.00;;;14.20;99.90;;;;;;21155627;28;20477;-69
2023/03/12 00:16:17;;;;;;;0.20;0.10;;;13.90;99.90;;;;;;21077308;28;20404;-69
2023/03/12 00:26:22;;;;;;;0.20;0.00;;;13.90;99.90;;;;;;21070530;28;20405;-70
2023/03/12 00:36:28;;;;;;;0.20;0.00;;;14.00;99.90;;;;;;21133342;28;20402;-69
2023/03/12 00:46:33;;;;;;;0.20;0.00;;;14.10;99.90;;;;;;21137141;28;20417;-70
2023/03/12 00:56:37;;;;;;;0.20;0.00;;;13.80;99.90;;;;;;21112698;28;20403;-70
2023/03/12 01:06:42;;;;;;;0.20;0.10;;;13.80;99.90;;;;;;21110721;27;20418;-70
2023/03/12 01:16:46;;;;;;;0.20;0.03;;;14.20;99.90;;;;;;21110827;27;21182;-70
2023/03/12 01:26:51;;;;;;;0.20;0.00;;;13.70;99.90;;;;;;21153242;28;20511;-70
2023/03/12 01:36:54;;;;;;;0.20;0.00;;;13.60;99.90;;;;;;21154378;28;20455;-71
2023/03/12 01:47:00;;;;;;;0.20;0.00;;;13.60;99.90;;;;;;21152150;28;20894;-71
2023/03/12 01:57:06;;;;;;;0.20;0.00;;;13.40;99.90;;;;;;21150535;28;20735;-70
2023/03/12 02:07:14;;;;;;;0.20;0.00;;;13.30;99.90;;;;;;21151862;27;20414;-70
2023/03/12 02:17:17;;;;;;;0.20;0.10;;;13.00;99.90;;;;;;21149012;28;21153;-70
2023/03/12 02:27:23;;;;;;;3.10;3.00;;;13.40;99.90;;;;;;21148364;28;20719;-70
2023/03/12 02:37:27;;;;;;;0.20;0.00;;;12.90;99.90;;;;;;21147672;28;20408;-71
2023/03/12 02:47:32;;;;;;;0.20;0.07;;;13.30;99.90;;;;;;21146989;28;20769;-70
2023/03/12 02:57:37;;;;;;;0.20;0.00;;;13.40;99.90;;;;;;21148116;28;20773;-70
2023/03/12 03:07:42;;;;;;;0.20;0.10;;;13.90;99.90;;;;;;21145485;28;20928;-70
2023/03/12 03:17:46;;;;;;;0.20;0.00;;;13.80;99.90;;;;;;21147127;28;20430;-69
2023/03/12 03:27:51;;;;;;;0.20;0.00;;;13.80;99.90;;;;;;21145492;28;20402;-69
2023/03/12 03:37:54;;;;;;;0.20;0.00;;;13.40;99.90;;;;;;21146671;28;21729;-69
2023/03/12 03:48:00;;;;;;;0.20;0.10;;;13.30;99.90;;;;;;21144763;28;20418;-69
2023/03/12 03:58:04;;;;;;;0.20;0.00;;;13.50;99.90;;;;;;21146116;28;20460;-68
2023/03/12 04:08:09;;;;;;;0.20;0.00;;;13.20;99.90;;;;;;21143809;28;20497;-69
2023/03/12 04:18:13;;;;;;;0.20;0.00;;;13.10;99.90;;;;;;21153291;28;20478;-69
2023/03/12 04:28:18;;;;;;;0.20;0.00;;;13.10;99.90;;;;;;21157706;28;20398;-70
2023/03/12 04:38:24;;;;;;;0.20;0.10;;;13.10;99.90;;;;;;21157852;28;20517;-70
2023/03/12 04:48:29;;;;;;;0.20;0.00;;;12.80;99.90;;;;;;21144236;27;20993;-69
2023/03/12 04:58:34;;;;;;;0.20;0.10;;;12.50;99.90;;;;;;21148760;27;20391;-69
2023/03/12 05:08:39;;;;;;;0.20;0.07;;;12.60;99.90;;;;;;21140944;28;20412;-69
2023/03/12 05:18:44;;;;;;;0.20;0.00;;;12.20;99.90;;;;;;21069721;28;20407;-69
2023/03/12 05:28:49;;;;;;;0.20;0.00;;;12.40;99.90;;;;;;21139524;27;20401;-67
2023/03/12 05:38:53;;;;;;;0.20;0.03;;;12.40;99.90;;;;;;21308470;27;20405;-68
2023/03/12 05:48:58;;;;;;;0.20;0.00;;;12.60;99.90;;;;;;21409791;27;20397;-69
2023/03/12 05:59:02;;;;;;;0.20;0.00;;;12.60;99.90;;;;;;21390304;27;20409;-69
2023/03/12 06:09:08;;;;;;;0.20;0.00;;;12.40;99.90;;;;;;21408113;27;20413;-69
2023/03/12 06:19:13;;;;;;;0.20;0.10;;;12.40;99.90;;;;;;21406883;27;20394;-70
2023/03/12 06:29:18;;;;;;;0.20;0.10;;;12.60;99.90;;;;;;21387214;27;20749;-70
2023/03/12 06:39:22;;;;;;;0.20;0.00;;;12.70;99.90;;;;;;21386252;27;20945;-70
2023/03/12 06:49:30;;;;;;;0.20;0.00;;;12.90;99.90;;;;;;21404516;27;20397;-69
2023/03/12 06:59:34;;;;;;;0.20;0.00;;;13.10;99.90;;;;;;21403935;27;20397;-69
2023/03/12 07:09:39;;;;;;;0.20;0.00;;;14.30;99.90;;;;;;21403544;27;20413;-68
2023/03/12 07:19:43;;;;;;;0.20;0.00;;;15.10;99.90;;;;;;21402905;27;20398;-70
2023/03/12 07:29:49;;;;;;;0.20;0.10;;;15.70;99.90;;;;;;21365846;27;20470;-71
2023/03/12 07:39:53;;;;;;;0.20;0.00;;;16.20;99.90;;;;;;21401540;27;20398;-72
2023/03/12 07:49:59;;;;;;;0.20;0.10;;;16.40;99.90;;;;;;21370994;27;20401;-69
2023/03/12 08:00:06;;;;;;;0.20;0.00;;;16.90;99.90;;;;;;21329121;27;20392;-70
2023/03/12 08:10:12;;;;;;;0.20;0.10;;;17.10;99.90;;;;;;21225381;27;20411;-70
2023/03/12 08:20:16;;;;;;;0.20;0.10;;;17.60;99.90;;;;;;21207917;27;20385;-70
2023/03/12 08:30:21;;;;;;;0.20;0.10;;;17.70;99.90;;;;;;21285280;27;20395;-71
2023/03/12 08:40:25;;;;;;;0.20;0.10;;;17.50;99.90;;;;;;21327892;27;20399;-72
2023/03/12 08:50:31;;;;;;;0.20;0.10;;;17.70;99.90;;;;;;21325394;27;20444;-70
2023/03/12 09:00:34;;;;;;;0.20;0.10;;;17.70;99.90;;;;;;21325405;27;20387;-71
2023/03/12 09:10:40;;;;;;;0.20;0.10;;;17.80;99.90;;;;;;21306001;27;20402;-69
2023/03/12 09:20:44;;;;;;;0.20;0.00;;;17.80;99.90;;;;;;21324386;27;20395;-72
2023/03/12 09:30:50;;;;;;;0.20;0.00;;;17.70;99.90;;;;;;21322770;27;20422;-69
2023/03/12 09:40:55;;;;;;;0.20;0.00;;;17.70;99.90;;;;;;21285909;27;20862;-71
2023/03/12 09:51:03;;;;;;;0.20;0.00;;;17.80;99.90;;;;;;21299668;27;20411;-70
2023/03/12 10:01:21;;;;;;;0.20;0.10;;;18.00;99.90;;;;;;21314659;27;20383;-70
2023/03/12 10:11:35;;;;;;;0.20;0.10;;;18.10;99.90;;;;;;21316332;27;20425;-69
2023/03/12 10:21:48;;;;;;;0.20;0.10;;;18.10;99.90;;;;;;21297770;27;20406;-70
2023/03/12 10:31:57;;;;;;;0.20;0.10;;;18.70;99.90;;;;;;21315961;27;20917;-68
2023/03/12 10:42:01;;;;;;;0.20;0.07;;;19.10;99.90;;;;;;21322815;27;20496;-69
2023/03/12 10:52:15;;;;;;;0.20;0.00;;;20.10;99.90;;;;;;21386668;27;20422;-70
2023/03/12 11:02:34;;;;;;;0.20;0.00;;;20.30;99.90;;;;;;21294361;27;20750;-73
2023/03/12 11:12:52;;;;;;;0.20;0.10;;;20.90;99.90;;;;;;21309028;27;20498;-67
2023/03/12 11:22:56;;;;;;;0.20;0.10;;;20.60;99.90;;;;;;21310940;27;20826;-68
2023/03/12 11:33:02;;;;;;;0.20;0.10;;;20.70;99.90;;;;;;21282318;27;20457;-68
2023/03/12 11:43:33;;;;;;;0.20;0.10;;;20.70;99.90;;;;;;21309398;27;20387;-67
2023/03/12 11:54:05;;;;;;;0.20;0.10;;;21.40;99.90;;;;;;21308895;27;20403;-70
2023/03/12 12:04:28;;;;;;;0.20;0.00;;;20.90;99.90;;;;;;21309002;27;20490;-69
2023/03/12 12:14:48;;;;;;;0.20;0.03;;;21.60;99.90;;;;;;21327306;27;20410;-70
2023/03/12 12:25:12;;;;;;;0.20;0.10;;;22.30;99.90;;;;;;21283335;27;20424;-71
2023/03/12 12:35:27;;;;;;;0.20;0.00;;;21.60;99.90;;;;;;21301357;27;20750;-70
2023/03/12 12:45:31;;;;;;;0.20;0.10;;;22.30;99.90;;;;;;21306763;27;20436;-71
2023/03/12 12:55:43;;;;;;;0.20;0.08;;;22.10;99.90;;;;;;21323844;27;20503;-68
2023/03/12 13:05:54;;;;;;;0.20;0.08;;;21.20;99.90;;;;;;21300547;27;20403;-69
2023/03/12 13:16:27;;;;;;;0.20;0.00;;;22.50;99.90;;;;;;21298166;27;20489;-70
2023/03/12 13:26:41;;;;;;;0.20;0.00;;;23.00;99.90;;;;;;21285217;27;20452;-70
2023/03/12 13:36:47;;;;;;;0.20;0.00;;;23.30;99.90;;;;;;21316062;27;20877;-71
2023/03/12 13:46:59;;;;;;;0.20;0.00;;;23.90;99.90;;;;;;21298616;27;20395;-70
2023/03/12 13:57:11;;;;;;;0.20;0.00;;;23.30;99.90;;;;;;21314806;27;20403;-69
2023/03/12 14:07:48;;;;;;;0.20;0.10;;;23.60;99.90;;;;;;21279714;27;20392;-70
2023/03/12 14:17:59;;;;;;;0.20;0.00;;;23.70;99.90;;;;;;21313095;27;20488;-71
2023/03/12 14:28:03;;;;;;;0.20;0.00;;;23.90;99.90;;;;;;21311320;27;20395;-70
2023/03/12 14:38:16;;;;;;;0.20;0.00;;;24.10;99.90;;;;;;21300132;27;20410;-70
2023/03/12 14:48:27;;;;;;;0.20;0.00;;;24.60;99.90;;;;;;21291673;27;20394;-71
2023/03/12 14:58:34;;;;;;;0.20;0.00;;;25.20;99.90;;;;;;21276298;27;20403;-70
2023/03/12 15:08:42;;;;;;;0.20;0.00;;;24.70;99.90;;;;;;21310107;27;20775;-71
2023/03/12 15:18:49;;;;;;;0.20;0.00;;;25.10;99.90;;;;;;21292278;27;20908;-70
2023/03/12 15:28:57;;;;;;;0.20;0.00;;;24.80;99.90;;;;;;21291989;27;20402;-69
2023/03/12 15:39:04;;;;;;;0.20;0.00;;;24.40;99.90;;;;;;21277729;27;20403;-69
2023/03/12 15:49:22;;;;;;;0.20;0.00;;;24.60;99.90;;;;;;21308253;27;20462;-66
2023/03/12 15:59:28;;;;;;;0.20;0.00;;;25.00;99.90;;;;;;21246484;27;20400;-70
2023/03/12 16:09:34;;;;;;;0.20;0.00;;;23.70;99.90;;;;;;21291213;27;20849;-71
2023/03/12 16:19:40;;;;;;;0.20;0.00;;;22.90;99.90;;;;;;21304921;27;20463;-73
2023/03/12 16:29:44;;;;;;;0.20;0.10;;;21.90;99.90;;;;;;21303562;27;20443;-71
2023/03/12 16:39:50;;;;;;;0.20;0.10;;;20.90;99.90;;;;;;21300446;27;20392;-72
2023/03/12 16:49:53;;;;;;;0.20;0.10;;;20.10;99.90;;;;;;21296174;27;20850;-72
2023/03/12 17:00:00;;;;;;;0.20;0.10;;;20.40;99.90;;;;;;21322582;27;20391;-71
2023/03/12 17:10:04;;;;;;;0.20;0.10;;;20.20;99.90;;;;;;21322022;27;20478;-71
2023/03/12 17:20:13;;;;;;;0.20;0.00;;;19.10;99.90;;;;;;21283400;27;20431;-71
2023/03/12 17:30:17;;;;;;;0.20;0.10;;;18.70;99.90;;;;;;21318710;27;20407;-72
2023/03/12 17:40:22;;;;;;;0.20;0.10;;;18.30;99.90;;;;;;21313849;27;20391;-70
2023/03/12 17:50:26;;;;;;;0.20;0.10;;;17.80;99.90;;;;;;21299792;27;20731;-71
2023/03/12 18:00:32;;;;;;;0.20;0.10;;;17.90;99.90;;;;;;21298590;27;20394;-71
2023/03/12 18:10:37;;;;;;;0.20;0.10;;;17.80;99.90;;;;;;21315455;27;20494;-71
2023/03/12 18:20:43;;;;;;;0.20;0.10;;;17.50;99.90;;;;;;21278921;27;20386;-70
2023/03/12 18:30:48;;;;;;;0.20;0.10;;;17.30;99.90;;;;;;21294866;27;20475;-71
2023/03/12 18:41:03;;;;;;;0.20;0.00;;;17.30;99.90;;;;;;21290264;27;20430;-71
2023/03/12 18:51:07;;;;;;;0.20;0.10;;;17.20;99.90;;;;;;21313185;27;20482;-68
2023/03/12 19:01:12;;;;;;;0.20;0.10;;;16.70;99.90;;;;;;21276938;27;20444;-70
2023/03/12 19:11:17;;;;;;;0.20;0.10;;;16.40;99.90;;;;;;21311612;27;20445;-69
2023/03/12 19:21:23;;;;;;;0.20;0.00;;;15.90;99.90;;;;;;21293659;27;20393;-71
2023/03/12 19:31:27;;;;;;;0.20;0.10;;;15.40;99.90;;;;;;21310792;27;20406;-71
2023/03/12 19:41:32;;;;;;;0.20;0.10;;;15.30;99.90;;;;;;21222452;28;20388;-70
2023/03/12 19:51:38;;;;;;;0.20;0.00;;;15.30;99.90;;;;;;21239915;27;20413;-70
2023/03/12 20:01:44;;;;;;;0.20;0.10;;;15.20;99.90;;;;;;21326492;27;20383;-68
2023/03/12 20:11:48;;;;;;;0.20;0.10;;;15.00;99.90;;;;;;21306996;27;20797;-70
2023/03/12 20:21:53;;;;;;;0.20;0.05;;;15.00;99.90;;;;;;21325422;27;20395;-70
2023/03/12 20:31:57;;;;;;;0.20;0.00;;;14.60;99.90;;;;;;21303601;27;20415;-71
2023/03/12 20:42:03;;;;;;;0.20;0.00;;;14.40;99.90;;;;;;21322523;27;20403;-71
2023/03/12 20:52:06;;;;;;;0.20;0.00;;;14.40;99.90;;;;;;21324852;27;20464;-71
2023/03/12 21:02:14;;;;;;;0.20;0.10;;;14.50;99.90;;;;;;21322571;27;20399;-71
2023/03/12 21:12:18;;;;;;;0.20;0.08;;;14.50;99.90;;;;;;21288367;27;20422;-71
2023/03/12 21:22:23;;;;;;;0.20;0.00;;;14.40;99.90;;;;;;21285828;27;20387;-69
2023/03/12 21:32:27;;;;;;;0.20;0.10;;;14.00;99.90;;;;;;21314624;27;20401;-70
2023/03/12 21:42:33;;;;;;;0.20;0.10;;;13.70;99.90;;;;;;21215855;27;20901;-71
2023/03/12 21:52:46;;;;;;;0.20;0.00;;;13.90;99.90;;;;;;21214943;27;20466;-70
2023/03/12 22:02:53;;;;;;;0.20;0.10;;;13.80;99.90;;;;;;21232601;27;20953;-71
2023/03/12 22:12:56;;;;;;;0.20;0.10;;;14.00;99.90;;;;;;21230156;27;20434;-69
2023/03/12 22:23:02;;;;;;;0.20;0.00;;;13.60;99.90;;;;;;21230456;27;20740;-70
2023/03/12 22:33:05;;;;;;;0.20;0.00;;;13.60;99.90;;;;;;21222931;27;20460;-70
2023/03/12 22:43:10;;;;;;;0.20;0.00;;;13.60;99.90;;;;;;21301431;27;20392;-69
2023/03/12 22:53:14;;;;;;;0.20;0.10;;;13.50;99.90;;;;;;21318893;27;20739;-69
2023/03/12 23:03:19;;;;;;;0.20;0.10;;;13.70;99.90;;;;;;21290804;27;20952;-69
2023/03/12 23:13:23;;;;;;;0.20;0.00;;;13.50;99.90;;;;;;21300322;27;20554;-69
2023/03/12 23:23:29;;;;;;;0.20;0.10;;;13.40;99.90;;;;;;21317455;27;20388;-68
2023/03/12 23:33:34;;;;;;;0.20;0.00;;;13.30;99.90;;;;;;21312929;27;20441;-69
2023/03/12 23:43:39;;;;;;;0.20;0.10;;;13.10;99.90;;;;;;21310763;27;20481;-68
2023/03/12 23:53:44;;;;;;;0.20;0.00;;;13.00;99.90;;;;;;21285678;27;20456;-68
